createdAt,value
2018-07-24T16:58:22.218Z,9.90
2018-07-24T17:00:50.750Z,10.83
2018-07-24T17:03:19.281Z,10.70
2018-07-24T17:05:47.858Z,10.40
2018-07-24T17:08:16.624Z,11.00
2018-07-24T17:10:45.238Z,11.07
2018-07-24T17:13:13.798Z,10.30
2018-07-24T17:15:42.306Z,10.77
2018-07-24T17:18:10.832Z,13.60
2018-07-24T17:20:39.402Z,12.10
2018-07-24T17:23:07.953Z,11.80
2018-07-24T17:25:38.255Z,11.10
2018-07-24T17:28:07.691Z,12.20
2018-07-24T17:33:10.551Z,11.10
2018-07-24T17:35:39.158Z,11.70
2018-07-24T17:38:07.695Z,10.23
2018-07-24T17:40:36.243Z,11.53
2018-07-24T17:43:04.796Z,10.93
2018-07-24T17:45:33.308Z,10.60
2018-07-24T17:48:01.991Z,10.60
2018-07-24T17:50:30.640Z,11.63
2018-07-24T17:52:59.083Z,11.33
2018-07-24T17:55:27.578Z,11.53
2018-07-24T17:57:56.097Z,15.90
2018-07-24T18:00:24.842Z,14.00
2018-07-24T18:03:55.898Z,13.60
2018-07-24T18:06:24.407Z,12.70
2018-07-24T18:08:53.031Z,13.70
2018-07-24T18:11:21.571Z,13.03
2018-07-24T18:13:50.092Z,13.30
2018-07-24T18:16:18.604Z,13.10
2018-07-24T18:18:47.177Z,12.73
2018-07-24T18:21:15.802Z,11.63
2018-07-24T18:23:44.334Z,13.33
2018-07-24T18:26:12.813Z,11.60
2018-07-24T18:28:41.343Z,11.90
2018-07-24T18:31:09.823Z,13.17
2018-07-24T18:33:38.423Z,12.90
2018-07-24T18:36:06.935Z,11.70
2018-07-24T18:38:35.533Z,12.33
2018-07-24T18:41:04.070Z,11.63
2018-07-24T18:43:32.533Z,13.30
2018-07-24T18:46:01.024Z,11.60
2018-07-24T18:48:29.601Z,11.60
2018-07-24T18:50:58.303Z,12.17
2018-07-24T18:53:26.840Z,11.40
2018-07-24T18:55:55.461Z,11.87
2018-07-24T18:58:24.599Z,11.80
2018-07-24T19:00:53.164Z,11.83
2018-07-24T19:03:21.711Z,12.40
2018-07-24T19:05:50.349Z,12.60
2018-07-24T19:08:19.077Z,11.67
2018-07-24T19:10:47.556Z,10.43
2018-07-24T19:13:16.045Z,11.80
2018-07-24T19:15:44.646Z,11.90
2018-07-24T19:18:13.246Z,11.30
2018-07-24T19:20:41.642Z,10.83
2018-07-24T19:23:10.274Z,12.23
2018-07-24T19:25:38.897Z,11.27
2018-07-24T19:28:07.462Z,11.17
2018-07-24T19:30:36.097Z,10.80
2018-07-24T19:33:04.606Z,11.60
2018-07-24T19:35:33.134Z,12.20
2018-07-24T19:38:01.571Z,11.23
2018-07-24T19:40:30.093Z,11.10
2018-07-24T19:42:58.576Z,11.10
2018-07-24T19:45:27.102Z,10.57
2018-07-24T19:47:55.593Z,11.37
2018-07-24T19:50:24.130Z,11.40
2018-07-24T19:52:52.658Z,11.47
2018-07-24T19:55:21.150Z,10.83
2018-07-24T19:57:51.448Z,10.40
2018-07-24T20:00:19.968Z,11.50
2018-07-24T20:02:48.490Z,11.93
2018-07-24T20:05:17.564Z,11.93
2018-07-24T20:07:46.040Z,11.70
2018-07-24T20:10:14.709Z,10.77
2018-07-24T20:12:43.224Z,11.50
2018-07-24T20:15:17.757Z,10.97
2018-07-24T20:17:46.282Z,9.83
2018-07-24T20:20:15.721Z,11.00
2018-07-24T20:22:44.465Z,11.07
2018-07-24T20:25:13.828Z,10.30
2018-07-24T20:27:44.165Z,10.20
2018-07-24T20:30:12.879Z,10.50
2018-07-24T20:32:41.485Z,32.17
2018-07-24T20:35:10.069Z,305.30
2018-07-24T20:37:38.526Z,101.83
2018-07-24T20:40:07.321Z,70.50
2018-07-24T20:42:36.337Z,73.17
2018-07-24T20:45:05.615Z,85.63
2018-07-24T20:47:34.189Z,83.97
2018-07-24T20:50:02.982Z,80.77
2018-07-24T20:52:31.936Z,76.57
2018-07-24T20:55:00.502Z,82.90
2018-07-24T20:57:30.225Z,92.80
2018-07-24T20:59:59.160Z,78.40
2018-07-24T21:02:27.647Z,82.47
2018-07-24T21:04:56.177Z,85.97
2018-07-24T21:07:24.709Z,81.17
2018-07-24T21:09:53.791Z,94.30
2018-07-24T21:12:22.286Z,101.77
2018-07-24T21:14:51.014Z,102.57
2018-07-24T21:17:20.005Z,95.27
2018-07-24T21:19:48.697Z,120.77
2018-07-24T21:22:17.189Z,122.00
2018-07-24T21:24:45.755Z,134.30
2018-07-24T21:27:14.291Z,187.90
2018-07-24T21:29:42.762Z,107.27
2018-07-24T21:32:11.238Z,107.77
2018-07-24T21:34:40.412Z,91.83
2018-07-24T21:37:08.507Z,90.57
2018-07-24T21:39:42.317Z,75.43
2018-07-24T21:42:11.653Z,77.10
2018-07-24T21:44:40.155Z,72.67
2018-07-24T21:47:08.659Z,58.60
2018-07-24T21:49:37.217Z,49.63
2018-07-24T21:52:05.780Z,48.30
2018-07-24T21:54:34.302Z,44.13
2018-07-24T21:57:02.812Z,38.40
2018-07-24T21:59:31.609Z,33.17
2018-07-24T22:02:00.149Z,35.73
2018-07-24T22:04:28.687Z,31.60
2018-07-24T22:06:57.250Z,30.07
2018-07-24T22:09:25.799Z,27.90
2018-07-24T22:11:54.382Z,25.77
2018-07-24T22:14:22.970Z,22.90
2018-07-24T22:16:51.463Z,20.93
2018-07-24T22:19:19.991Z,21.10
2018-07-24T22:21:48.526Z,18.97
2018-07-24T22:24:17.056Z,16.57
2018-07-24T22:26:45.583Z,18.20
2018-07-24T22:29:14.299Z,16.90
2018-07-24T22:31:42.857Z,16.27
2018-07-24T22:34:11.349Z,15.90
2018-07-24T22:36:39.893Z,14.97
2018-07-24T22:39:10.018Z,14.97
2018-07-24T22:41:38.554Z,13.70
2018-07-24T22:44:07.054Z,11.60
2018-07-24T22:46:35.878Z,12.80
2018-07-24T22:49:04.647Z,12.00
2018-07-24T22:51:33.159Z,11.00
2018-07-24T22:54:01.674Z,11.23
2018-07-24T22:56:30.187Z,11.03
2018-07-24T22:58:58.726Z,10.47
2018-07-24T23:01:27.237Z,10.33
2018-07-24T23:03:55.774Z,9.97
2018-07-24T23:06:24.294Z,11.00
2018-07-24T23:08:52.787Z,9.30
2018-07-24T23:11:21.315Z,10.20
2018-07-24T23:13:49.854Z,10.37
2018-07-24T23:16:18.371Z,9.47
2018-07-24T23:18:46.867Z,9.53
2018-07-24T23:21:15.363Z,9.67
2018-07-24T23:23:43.891Z,10.20
2018-07-24T23:26:12.398Z,9.80
2018-07-24T23:28:40.922Z,9.83
2018-07-24T23:31:09.453Z,8.33
2018-07-24T23:33:37.954Z,9.33
2018-07-24T23:36:06.535Z,9.60
2018-07-24T23:38:35.382Z,9.70
2018-07-24T23:41:03.962Z,8.80
2018-07-24T23:43:32.513Z,8.43
2018-07-24T23:46:01.303Z,9.63
2018-07-24T23:48:29.825Z,10.40
2018-07-24T23:50:58.306Z,8.60
2018-07-24T23:53:26.826Z,8.63
2018-07-24T23:55:55.335Z,9.40
2018-07-24T23:58:23.951Z,8.73
